createdAt,value
2022-09-14T00:01:26.563Z,99.90
2022-09-14T00:03:55.216Z,99.90
2022-09-14T00:06:22.040Z,99.90
2022-09-14T00:08:52.753Z,99.90
2022-09-14T00:11:20.037Z,99.90
2022-09-14T00:13:47.598Z,99.90
2022-09-14T00:16:16.015Z,99.90
2022-09-14T00:18:43.159Z,99.90
2022-09-14T00:21:11.095Z,99.90
2022-09-14T00:23:39.130Z,99.90
2022-09-14T00:26:07.511Z,99.90
2022-09-14T00:28:45.191Z,99.90
2022-09-14T00:31:12.288Z,99.90
2022-09-14T00:33:39.396Z,99.90
2022-09-14T00:36:14.564Z,99.90
2022-09-14T00:38:41.968Z,99.90
2022-09-14T00:41:11.995Z,99.90
2022-09-14T00:43:52.446Z,99.90
2022-09-14T00:46:19.213Z,99.90
2022-09-14T00:48:46.052Z,99.90
2022-09-14T00:51:13.181Z,99.90
2022-09-14T00:53:40.110Z,99.90
2022-09-14T00:56:06.941Z,99.90
2022-09-14T00:58:33.772Z,99.90
2022-09-14T01:01:02.541Z,99.90
2022-09-14T01:03:29.271Z,99.90
2022-09-14T01:06:09.977Z,99.90
2022-09-14T01:08:42.875Z,99.90
2022-09-14T01:11:15.532Z,99.90
2022-09-14T01:14:00.654Z,99.90
2022-09-14T01:16:30.491Z,99.90
2022-09-14T01:18:58.396Z,99.90
2022-09-14T01:21:35.055Z,99.90
2022-09-14T01:24:06.260Z,99.90
2022-09-14T01:26:40.816Z,99.90
2022-09-14T01:29:26.245Z,99.90
2022-09-14T01:31:53.257Z,99.90
2022-09-14T01:34:28.259Z,99.90
2022-09-14T01:36:58.984Z,99.90
2022-09-14T01:39:27.272Z,99.90
2022-09-14T01:41:54.226Z,99.90
2022-09-14T01:44:27.546Z,99.90
2022-09-14T01:46:55.397Z,99.90
2022-09-14T01:49:22.138Z,99.90
2022-09-14T01:51:50.530Z,99.90
2022-09-14T01:54:26.777Z,99.90
2022-09-14T01:56:58.220Z,99.90
2022-09-14T01:59:27.492Z,99.90
2022-09-14T02:01:56.775Z,99.90
2022-09-14T02:04:35.891Z,99.90
2022-09-14T02:07:02.709Z,99.90
2022-09-14T02:09:29.506Z,99.90
2022-09-14T02:12:00.639Z,99.90
2022-09-14T02:14:27.860Z,99.90
2022-09-14T02:16:54.667Z,99.90
2022-09-14T02:19:23.865Z,99.90
2022-09-14T02:21:50.988Z,99.90
2022-09-14T02:24:18.078Z,99.90
2022-09-14T02:26:45.676Z,99.90
2022-09-14T02:29:12.444Z,99.90
2022-09-14T02:31:39.171Z,99.90
2022-09-14T02:34:11.885Z,99.90
2022-09-14T02:36:50.052Z,99.90
2022-09-14T02:39:26.868Z,99.90
2022-09-14T02:42:00.612Z,99.90
2022-09-14T02:44:45.844Z,99.90
2022-09-14T02:47:21.111Z,99.90
2022-09-14T02:49:55.323Z,99.90
2022-09-14T02:52:33.024Z,99.90
2022-09-14T02:55:03.384Z,99.90
2022-09-14T02:57:30.113Z,99.90
2022-09-14T02:59:56.900Z,99.90
2022-09-14T03:02:23.695Z,99.90
2022-09-14T03:04:50.475Z,99.90
2022-09-14T03:07:17.144Z,99.90
2022-09-14T03:09:43.899Z,99.90
2022-09-14T03:12:10.718Z,99.90
2022-09-14T03:14:37.399Z,99.90
2022-09-14T03:17:04.152Z,99.90
2022-09-14T03:19:30.957Z,99.90
2022-09-14T03:21:58.609Z,99.90
2022-09-14T03:24:25.367Z,99.90
2022-09-14T03:30:45.854Z,99.90
2022-09-14T03:33:13.445Z,99.90
2022-09-14T03:35:40.178Z,99.90
2022-09-14T03:38:07.018Z,99.90
2022-09-14T03:40:33.802Z,99.90
2022-09-14T03:43:00.614Z,99.90
2022-09-14T03:45:27.368Z,99.90
2022-09-14T03:47:54.188Z,99.90
2022-09-14T03:50:20.902Z,99.90
2022-09-14T03:52:47.680Z,99.90
2022-09-14T03:55:14.400Z,99.90
2022-09-14T03:57:41.186Z,99.90
2022-09-14T04:00:08.725Z,99.90
2022-09-14T04:02:38.788Z,99.90
2022-09-14T04:05:06.190Z,99.90
2022-09-14T04:07:33.187Z,99.90
2022-09-14T04:09:59.927Z,99.90
2022-09-14T04:12:26.794Z,99.90
2022-09-14T04:14:53.554Z,99.90
2022-09-14T04:17:20.279Z,99.90
2022-09-14T04:19:47.065Z,99.90
2022-09-14T04:22:13.832Z,99.90
2022-09-14T04:24:40.617Z,99.90
2022-09-14T04:27:07.450Z,99.90
2022-09-14T04:29:34.269Z,99.90
2022-09-14T04:32:01.127Z,99.90
2022-09-14T04:34:28.003Z,99.90
2022-09-14T04:36:54.848Z,99.90
2022-09-14T04:39:21.595Z,99.90
2022-09-14T04:41:48.313Z,99.90
2022-09-14T04:44:15.290Z,99.90
2022-09-14T04:46:46.133Z,99.90
2022-09-14T04:49:14.890Z,99.90
2022-09-14T04:51:41.607Z,99.90
2022-09-14T04:54:09.798Z,99.90
2022-09-14T04:56:37.106Z,99.90
2022-09-14T04:59:04.624Z,99.90
2022-09-14T05:01:49.293Z,99.90
2022-09-14T05:04:16.454Z,99.90
2022-09-14T05:06:44.335Z,99.90
2022-09-14T05:09:15.559Z,99.90
2022-09-14T05:11:42.587Z,99.90
2022-09-14T05:14:10.847Z,99.90
2022-09-14T05:16:38.947Z,99.90
2022-09-14T05:19:07.328Z,99.90
2022-09-14T05:21:35.648Z,99.90
2022-09-14T05:24:05.099Z,99.90
2022-09-14T05:26:32.236Z,99.90
2022-09-14T05:28:59.781Z,99.90
2022-09-14T05:31:27.448Z,99.90
2022-09-14T05:33:57.181Z,99.90
2022-09-14T05:36:23.904Z,99.90
2022-09-14T05:38:50.662Z,99.90
2022-09-14T05:41:17.584Z,99.90
2022-09-14T05:43:44.757Z,99.90
2022-09-14T05:46:15.937Z,99.90
2022-09-14T05:48:43.404Z,99.90
2022-09-14T05:51:15.788Z,99.90
2022-09-14T05:53:52.630Z,99.90
2022-09-14T05:56:20.048Z,99.90
2022-09-14T05:58:47.320Z,99.90
2022-09-14T06:01:33.030Z,99.90
2022-09-14T06:04:02.482Z,99.90
2022-09-14T06:06:30.345Z,99.90
2022-09-14T06:08:57.210Z,99.90
2022-09-14T06:11:25.688Z,99.90
2022-09-14T06:13:53.370Z,99.90
2022-09-14T06:16:20.703Z,99.90
2022-09-14T06:18:48.198Z,99.90
2022-09-14T06:21:16.780Z,99.90
2022-09-14T06:23:44.045Z,99.90
2022-09-14T06:26:10.793Z,99.90
2022-09-14T06:28:37.765Z,99.90
2022-09-14T06:31:07.449Z,99.90
2022-09-14T06:33:34.688Z,99.90
2022-09-14T06:36:03.237Z,99.90
2022-09-14T06:38:30.425Z,99.90
2022-09-14T06:40:58.293Z,99.90
2022-09-14T06:43:25.474Z,99.90
2022-09-14T06:45:59.541Z,99.90
2022-09-14T06:48:27.311Z,99.90
2022-09-14T06:50:54.131Z,99.90
2022-09-14T06:53:21.095Z,99.90
2022-09-14T06:55:47.853Z,99.90
2022-09-14T06:58:14.686Z,99.90
2022-09-14T07:00:41.433Z,99.90
2022-09-14T07:03:08.299Z,99.90
2022-09-14T07:05:35.056Z,99.90
2022-09-14T07:08:02.041Z,99.90
2022-09-14T07:10:28.930Z,99.90
2022-09-14T07:12:55.631Z,99.90
2022-09-14T07:15:22.433Z,99.90
2022-09-14T07:17:49.225Z,99.90
2022-09-14T07:20:16.426Z,99.90
2022-09-14T07:22:43.407Z,99.90
2022-09-14T07:25:10.448Z,99.90
2022-09-14T07:27:40.108Z,99.50
2022-09-14T07:30:07.943Z,99.90
2022-09-14T07:32:34.704Z,99.90
2022-09-14T07:35:01.457Z,99.90
2022-09-14T07:37:29.379Z,99.90
2022-09-14T07:39:57.286Z,99.90
2022-09-14T07:42:24.128Z,99.90
2022-09-14T07:44:50.845Z,99.90
2022-09-14T07:47:17.609Z,99.90
2022-09-14T07:49:44.435Z,99.90
2022-09-14T07:52:11.344Z,99.90
2022-09-14T07:54:38.418Z,99.90
2022-09-14T07:57:05.125Z,99.90
2022-09-14T07:59:36.105Z,99.90
2022-09-14T08:02:04.572Z,99.90
2022-09-14T08:04:31.341Z,99.90
2022-09-14T08:06:58.119Z,99.90
2022-09-14T08:09:25.804Z,99.90
2022-09-14T08:11:52.554Z,99.90
2022-09-14T08:14:19.240Z,99.90
2022-09-14T08:16:45.964Z,99.90
2022-09-14T08:19:14.485Z,99.90
2022-09-14T08:21:46.279Z,99.90
2022-09-14T08:24:15.539Z,99.90
2022-09-14T08:26:42.219Z,99.90
2022-09-14T08:29:08.981Z,99.90
2022-09-14T08:31:36.854Z,99.90
2022-09-14T08:34:03.996Z,99.90
2022-09-14T08:36:33.214Z,99.90
2022-09-14T08:39:01.590Z,99.90
2022-09-14T08:41:28.869Z,99.90
2022-09-14T08:43:59.577Z,99.90
2022-09-14T08:46:26.800Z,99.90
2022-09-14T08:48:53.902Z,99.90
2022-09-14T08:51:20.600Z,99.90
2022-09-14T08:53:47.563Z,99.90
2022-09-14T08:56:14.211Z,99.90
2022-09-14T08:59:01.166Z,99.90
2022-09-14T09:01:46.532Z,99.90
2022-09-14T09:04:17.443Z,99.90
2022-09-14T09:07:01.141Z,99.90
2022-09-14T09:09:38.631Z,99.90
2022-09-14T09:12:05.869Z,99.90
2022-09-14T09:14:40.968Z,99.90
2022-09-14T09:17:14.304Z,99.90
2022-09-14T09:19:49.838Z,99.90
2022-09-14T09:22:20.627Z,99.90
2022-09-14T09:24:49.100Z,99.90
2022-09-14T09:27:16.154Z,99.90
2022-09-14T09:29:43.297Z,99.90
2022-09-14T09:32:14.325Z,99.90
2022-09-14T09:34:44.006Z,99.90
2022-09-14T09:37:24.971Z,99.90
2022-09-14T09:39:51.814Z,99.90
2022-09-14T09:42:26.459Z,99.90
2022-09-14T09:45:01.850Z,99.90
2022-09-14T09:47:32.304Z,99.90
2022-09-14T09:50:00.459Z,99.90
2022-09-14T09:52:27.418Z,99.90
2022-09-14T09:54:55.799Z,99.90
2022-09-14T09:57:27.426Z,99.90
2022-09-14T10:00:08.486Z,99.90
2022-09-14T10:02:39.386Z,99.90
2022-09-14T10:05:18.147Z,99.90
2022-09-14T10:07:50.974Z,99.90
2022-09-14T10:10:21.685Z,99.90
2022-09-14T10:12:49.861Z,99.90
2022-09-14T10:15:25.777Z,99.90
2022-09-14T10:18:09.133Z,99.90
2022-09-14T10:20:37.175Z,99.90
2022-09-14T10:23:19.379Z,99.90
2022-09-14T10:25:46.826Z,99.90
2022-09-14T10:28:25.974Z,99.90
2022-09-14T10:30:56.296Z,99.90
2022-09-14T10:33:23.589Z,99.90
2022-09-14T10:35:50.338Z,99.90
2022-09-14T10:38:33.830Z,99.90
2022-09-14T10:41:12.786Z,99.90
2022-09-14T10:43:48.956Z,99.90
2022-09-14T10:46:20.389Z,99.90
2022-09-14T10:49:04.409Z,99.90
2022-09-14T10:51:40.773Z,99.90
2022-09-14T10:54:27.115Z,99.90
2022-09-14T10:57:06.301Z,99.90
2022-09-14T11:00:02.308Z,99.90
2022-09-14T11:02:29.674Z,99.90
2022-09-14T11:05:18.657Z,99.90
2022-09-14T11:07:45.407Z,99.90
2022-09-14T11:10:27.854Z,99.90
2022-09-14T11:13:07.582Z,99.90
2022-09-14T11:15:41.289Z,99.90
2022-09-14T11:18:08.137Z,99.90
2022-09-14T11:20:45.724Z,99.90
2022-09-14T11:23:12.624Z,99.90
2022-09-14T11:25:47.296Z,99.90
2022-09-14T11:28:16.601Z,99.90
2022-09-14T11:30:47.933Z,99.90
2022-09-14T11:33:20.485Z,99.90
2022-09-14T11:35:49.830Z,99.90
2022-09-14T11:38:16.537Z,99.90
2022-09-14T11:40:48.979Z,99.90
2022-09-14T11:43:22.456Z,99.90
2022-09-14T11:46:09.474Z,99.90
2022-09-14T11:48:43.839Z,99.90
2022-09-14T11:51:24.968Z,99.50
2022-09-14T11:53:51.917Z,99.40
2022-09-14T11:56:26.360Z,99.30
2022-09-14T11:58:54.623Z,99.40
2022-09-14T12:01:33.837Z,99.90
2022-09-14T12:04:00.592Z,99.30
2022-09-14T12:06:30.232Z,99.50
2022-09-14T12:09:31.874Z,99.70
2022-09-14T12:11:59.026Z,99.70
2022-09-14T12:14:31.621Z,99.90
2022-09-14T12:17:38.408Z,99.90
2022-09-14T12:20:20.540Z,99.70
2022-09-14T12:22:50.323Z,99.80
2022-09-14T12:25:20.805Z,99.80
2022-09-14T12:27:48.671Z,98.80
2022-09-14T12:30:37.106Z,98.40
2022-09-14T12:33:25.665Z,97.90
2022-09-14T12:35:52.428Z,97.80
2022-09-14T12:38:31.568Z,97.50
2022-09-14T12:40:59.545Z,97.80
2022-09-14T12:43:35.406Z,98.30
2022-09-14T12:46:08.386Z,98.40
2022-09-14T12:48:47.590Z,98.00
2022-09-14T12:51:14.344Z,97.60
2022-09-14T12:53:43.261Z,97.90
2022-09-14T12:56:26.384Z,97.60
2022-09-14T12:58:53.827Z,97.40
2022-09-14T13:01:26.576Z,97.30
2022-09-14T13:03:57.402Z,97.60
2022-09-14T13:06:26.783Z,96.00
2022-09-14T13:08:55.521Z,95.90
2022-09-14T13:11:24.557Z,96.40
2022-09-14T13:13:51.313Z,95.80
2022-09-14T13:16:30.602Z,96.20
2022-09-14T13:19:05.136Z,96.10
2022-09-14T13:21:32.608Z,96.20
2022-09-14T13:23:59.465Z,96.40
2022-09-14T13:26:28.572Z,97.30
2022-09-14T13:28:56.392Z,96.80
2022-09-14T13:31:27.574Z,96.50
2022-09-14T13:33:55.113Z,96.40
2022-09-14T13:36:23.611Z,96.40
2022-09-14T13:38:50.620Z,96.20
2022-09-14T13:41:18.745Z,96.30
2022-09-14T13:43:47.401Z,96.10
2022-09-14T13:46:18.373Z,96.30
2022-09-14T13:48:47.161Z,97.30
2022-09-14T13:51:14.469Z,97.40
2022-09-14T13:53:45.526Z,97.50
2022-09-14T13:56:34.430Z,96.90
2022-09-14T13:59:06.910Z,97.40
2022-09-14T14:01:36.707Z,97.20
2022-09-14T14:04:04.011Z,97.00
2022-09-14T14:06:38.306Z,97.40
2022-09-14T14:09:07.678Z,98.20
2022-09-14T14:11:36.711Z,98.50
2022-09-14T14:14:10.849Z,98.30
2022-09-14T14:16:37.618Z,98.00
2022-09-14T14:19:04.433Z,98.20
2022-09-14T14:21:32.532Z,98.00
2022-09-14T14:24:23.958Z,98.70
2022-09-14T14:26:51.690Z,98.80
2022-09-14T14:29:19.083Z,98.50
2022-09-14T14:31:46.116Z,98.70
2022-09-14T14:34:23.477Z,98.60
2022-09-14T14:36:50.526Z,98.90
2022-09-14T14:39:22.667Z,99.20
2022-09-14T14:41:49.753Z,99.30
2022-09-14T14:44:18.124Z,99.10
2022-09-14T14:46:45.644Z,99.20
2022-09-14T14:49:13.887Z,99.50
2022-09-14T14:51:40.716Z,99.90
2022-09-14T14:54:08.389Z,99.90
2022-09-14T14:56:35.151Z,99.90
2022-09-14T14:59:02.466Z,99.90
2022-09-14T15:01:29.766Z,99.90
2022-09-14T15:03:56.519Z,99.90
2022-09-14T15:06:26.482Z,99.90
2022-09-14T15:08:54.281Z,99.90
2022-09-14T15:11:21.448Z,99.90
2022-09-14T15:13:48.587Z,99.90
2022-09-14T15:16:15.883Z,99.90
2022-09-14T15:18:43.097Z,99.90
2022-09-14T15:21:09.824Z,99.90
2022-09-14T15:23:36.842Z,99.90
2022-09-14T15:26:03.814Z,99.90
2022-09-14T15:28:30.818Z,99.90
2022-09-14T15:30:58.313Z,99.90
2022-09-14T15:33:25.139Z,99.90
2022-09-14T15:35:55.943Z,99.90
2022-09-14T15:38:22.837Z,99.90
2022-09-14T15:40:49.712Z,99.90
2022-09-14T15:43:17.075Z,99.90
2022-09-14T15:45:43.815Z,99.90
2022-09-14T15:48:17.618Z,99.90
2022-09-14T15:50:45.790Z,99.90
2022-09-14T15:53:13.349Z,99.90
2022-09-14T15:55:40.944Z,99.90
2022-09-14T15:58:08.151Z,99.90
2022-09-14T16:00:35.638Z,99.90
2022-09-14T16:03:02.721Z,99.90
2022-09-14T16:05:30.201Z,99.90
2022-09-14T16:07:57.280Z,99.90
2022-09-14T16:10:25.641Z,99.90
2022-09-14T16:12:54.044Z,99.90
2022-09-14T16:15:20.787Z,99.90
2022-09-14T16:17:53.488Z,99.90
2022-09-14T16:20:20.555Z,99.90
2022-09-14T16:22:48.530Z,99.90
2022-09-14T16:25:16.384Z,99.90
2022-09-14T16:27:43.810Z,99.90
2022-09-14T16:30:10.797Z,99.90
2022-09-14T16:32:37.558Z,99.90
2022-09-14T16:35:08.078Z,99.90
2022-09-14T16:37:35.179Z,99.90
2022-09-14T16:40:02.577Z,99.90
2022-09-14T16:42:29.305Z,99.90
2022-09-14T16:44:56.059Z,99.90
2022-09-14T16:47:23.089Z,99.90
2022-09-14T16:49:49.821Z,99.90
2022-09-14T16:52:16.569Z,99.90
2022-09-14T16:54:43.624Z,99.90
2022-09-14T16:57:10.410Z,99.90
2022-09-14T16:59:37.235Z,99.90
2022-09-14T17:02:04.033Z,99.90
2022-09-14T17:04:30.945Z,99.90
2022-09-14T17:06:57.807Z,99.90
2022-09-14T17:09:26.088Z,99.90
2022-09-14T17:11:54.285Z,99.90
2022-09-14T17:14:22.428Z,99.90
2022-09-14T17:16:49.533Z,99.90
2022-09-14T17:19:16.854Z,99.90
2022-09-14T17:21:44.621Z,99.90
2022-09-14T17:24:12.097Z,99.90
2022-09-14T17:26:38.867Z,99.90
2022-09-14T17:29:06.690Z,99.90
2022-09-14T17:31:34.896Z,99.90
2022-09-14T17:34:02.561Z,99.90
2022-09-14T17:36:29.659Z,99.90
2022-09-14T17:38:58.139Z,99.90
2022-09-14T17:41:27.913Z,99.90
2022-09-14T17:43:55.679Z,99.90
2022-09-14T17:46:22.730Z,99.90
2022-09-14T17:48:50.148Z,99.90
2022-09-14T17:51:21.630Z,99.90
2022-09-14T17:53:49.745Z,99.90
2022-09-14T17:56:17.857Z,99.90
2022-09-14T17:58:45.611Z,99.90
2022-09-14T18:01:16.862Z,99.90
2022-09-14T18:03:51.429Z,99.90
2022-09-14T18:06:18.367Z,99.90
2022-09-14T18:08:45.380Z,99.90
2022-09-14T18:11:13.410Z,99.90
2022-09-14T18:13:43.982Z,99.90
2022-09-14T18:16:10.763Z,99.90
2022-09-14T18:18:37.847Z,99.90
2022-09-14T18:21:04.735Z,99.90
2022-09-14T18:23:31.451Z,99.90
2022-09-14T18:25:58.190Z,99.90
2022-09-14T18:28:24.953Z,99.90
2022-09-14T18:30:59.249Z,99.90
2022-09-14T18:33:26.132Z,99.90
2022-09-14T18:35:53.597Z,99.90
2022-09-14T18:38:20.366Z,99.90
2022-09-14T18:40:47.061Z,99.90
2022-09-14T18:43:16.675Z,99.90
2022-09-14T18:45:43.964Z,99.90
2022-09-14T18:48:10.988Z,99.90
2022-09-14T18:50:38.682Z,99.90
2022-09-14T18:53:05.509Z,99.90
2022-09-14T18:55:33.242Z,99.90
2022-09-14T18:58:00.496Z,99.90
2022-09-14T19:00:27.602Z,99.90
2022-09-14T19:02:55.334Z,99.90
2022-09-14T19:05:22.574Z,99.90
2022-09-14T19:07:49.363Z,99.90
2022-09-14T19:10:16.540Z,99.90
2022-09-14T19:12:43.439Z,99.90
2022-09-14T19:15:11.377Z,99.90
2022-09-14T19:17:38.723Z,99.90
2022-09-14T19:20:06.974Z,99.90
2022-09-14T19:22:33.651Z,99.90
2022-09-14T19:25:00.363Z,99.90
2022-09-14T19:27:27.226Z,99.90
2022-09-14T19:29:53.998Z,99.90
2022-09-14T19:32:20.709Z,99.90
2022-09-14T19:34:47.506Z,99.90
2022-09-14T19:37:14.269Z,99.90
2022-09-14T19:39:42.284Z,99.90
2022-09-14T19:42:09.021Z,99.90
2022-09-14T19:44:35.738Z,99.90
2022-09-14T19:47:02.482Z,99.90
2022-09-14T19:49:29.172Z,99.90
2022-09-14T19:51:56.611Z,99.90
2022-09-14T19:54:23.525Z,99.90
2022-09-14T19:56:50.306Z,99.90
2022-09-14T19:59:17.118Z,99.90
2022-09-14T20:01:44.422Z,99.90
2022-09-14T20:04:11.767Z,99.90
2022-09-14T20:06:42.720Z,99.90
2022-09-14T20:09:11.196Z,99.90
2022-09-14T20:11:38.937Z,99.90
2022-09-14T20:14:07.765Z,99.90
2022-09-14T20:16:35.868Z,99.90
2022-09-14T20:19:04.709Z,99.90
2022-09-14T20:21:31.529Z,99.90
2022-09-14T20:24:17.395Z,99.90
2022-09-14T20:26:45.835Z,99.90
2022-09-14T20:29:12.635Z,99.90
2022-09-14T20:31:39.361Z,99.90
2022-09-14T20:34:06.191Z,99.90
2022-09-14T20:36:33.019Z,99.90
2022-09-14T20:38:59.873Z,99.90
2022-09-14T20:41:30.592Z,99.90
2022-09-14T20:43:57.867Z,99.90
2022-09-14T20:46:31.013Z,99.90
2022-09-14T20:48:57.924Z,99.90
2022-09-14T20:51:25.176Z,99.90
2022-09-14T20:53:52.109Z,99.90
2022-09-14T20:56:23.036Z,99.90
2022-09-14T20:58:52.784Z,99.90
2022-09-14T21:01:21.011Z,99.90
2022-09-14T21:03:48.489Z,99.90
2022-09-14T21:06:16.867Z,99.90
2022-09-14T21:08:43.679Z,99.90
2022-09-14T21:11:21.774Z,99.90
2022-09-14T21:13:49.356Z,99.90
2022-09-14T21:16:20.263Z,99.90
2022-09-14T21:18:48.251Z,99.90
2022-09-14T21:21:16.462Z,99.90
2022-09-14T21:23:43.643Z,99.90
2022-09-14T21:26:11.215Z,99.90
2022-09-14T21:28:38.624Z,99.90
2022-09-14T21:31:08.195Z,99.90
2022-09-14T21:33:36.039Z,99.90
2022-09-14T21:36:07.111Z,99.90
2022-09-14T21:38:34.627Z,99.90
2022-09-14T21:41:01.786Z,99.90
2022-09-14T21:43:28.635Z,99.90
2022-09-14T21:45:57.888Z,99.90
2022-09-14T21:48:24.649Z,99.90
2022-09-14T21:51:00.344Z,99.90
2022-09-14T21:53:27.050Z,99.90
2022-09-14T21:55:53.771Z,99.90
2022-09-14T21:58:20.511Z,99.90
2022-09-14T22:00:47.231Z,99.90
2022-09-14T22:03:14.180Z,99.90
2022-09-14T22:05:40.915Z,99.90
2022-09-14T22:08:07.630Z,99.90
2022-09-14T22:10:34.547Z,99.90
2022-09-14T22:13:01.344Z,99.90
2022-09-14T22:15:31.774Z,99.90
2022-09-14T22:18:02.144Z,99.90
2022-09-14T22:20:29.201Z,99.90
2022-09-14T22:22:55.989Z,99.90
2022-09-14T22:25:25.539Z,99.90
2022-09-14T22:27:52.304Z,99.90
2022-09-14T22:30:18.993Z,99.90
2022-09-14T22:32:45.785Z,99.90
2022-09-14T22:35:12.553Z,99.90
2022-09-14T22:37:39.284Z,99.90
2022-09-14T22:40:06.176Z,99.90
2022-09-14T22:42:33.056Z,99.90
2022-09-14T22:44:59.735Z,99.90
2022-09-14T22:47:26.418Z,99.90
2022-09-14T22:49:53.152Z,99.90
2022-09-14T22:52:19.888Z,99.90
2022-09-14T22:54:46.608Z,99.90
2022-09-14T22:57:13.314Z,99.90
2022-09-14T22:59:40.100Z,99.90
2022-09-14T23:02:06.849Z,99.90
2022-09-14T23:04:34.724Z,99.90
2022-09-14T23:07:01.395Z,99.90
2022-09-14T23:09:28.453Z,99.90
2022-09-14T23:11:55.181Z,99.90
2022-09-14T23:14:22.236Z,99.90
2022-09-14T23:16:48.958Z,99.90
2022-09-14T23:19:16.855Z,99.90
2022-09-14T23:21:44.010Z,99.90
2022-09-14T23:24:10.988Z,99.90
2022-09-14T23:26:37.911Z,99.90
2022-09-14T23:29:05.878Z,99.90
2022-09-14T23:31:32.834Z,99.90
2022-09-14T23:34:00.508Z,99.90
2022-09-14T23:36:27.552Z,99.90
2022-09-14T23:38:54.374Z,99.90
2022-09-14T23:41:22.400Z,99.90
2022-09-14T23:43:49.230Z,99.90
2022-09-14T23:46:16.389Z,99.90
2022-09-14T23:48:43.509Z,99.90
2022-09-14T23:51:10.812Z,99.90
2022-09-14T23:53:37.645Z,99.90
2022-09-14T23:56:05.023Z,99.90
2022-09-14T23:58:31.821Z,99.90
